Saint Ignace, MI

4:03 AM EDT on May 07, 2015 (GMT -0400)
MesoWest | | Change Station
CLOSE
Current Station
Personal Weather Station
Location: Saint Ignace, MI
Elevation: 603 ft
Nearby Weather Stations

Elev 603 ft 45.90 °N, 84.74 °W | Updated 48 minutes ago

Clear
Clear
47 °F
Feels Like 44 °F
N
6
Wind Variable Wind from ENE
Gusts 8.0 mph

Today
High -- | Low -- °F
--% Chance of Precip.
Yesterday
High -- | Low -- °F
Precip. -- in
6:17 AM 8:54 PM
Waning Gibbous, 89% visible
Pressure 30.10 in
Visibility 7.0 miles
Clouds Clear
Windchill 44 °F
Dew Point 45 °F
Humidity 95%
Rainfall in
Snow Depth Not available.
UV 0 out of 12
Pollen 10.60 out of 12
Air Quality Not available.
Flu Activity Regional
METAR KMCD 070755Z AUTO 13006KT 7SM CLR 05/04 A3010 RMK AO2 T00520038

More Conditions Fewer Conditions

Pressure 30.10 in
Visibility 7.0 miles
Clouds Clear
Windchill 44 °F
Dew Point 45 °F
Humidity 95%
Rainfall in
Snow Depth Not available.
UV 0 out of 12
Pollen 10.60 out of 12
Air Quality Not available.
Flu Activity Regional
METAR KMCD 070755Z AUTO 13006KT 7SM CLR 05/04 A3010 RMK AO2 T00520038

More Conditions Fewer Conditions

Nowcast | as of 4:00 am EDT on May 7, 2015

At 5 am...mostly clear. Temperature 46. East winds 6 mph. At 7 am...mostly clear. Temperature 48. East winds 6 mph. At 9 am...mostly clear. Temperature 51. East winds 6 mph. At 11 am...mostly clear. Temperature 56. East winds 8 mph.

×

10-Day Weather Forecast

Almanac

Astronomy

May. 07, 2015 Rise Set
Actual Time
Civil Twilight
Nautical Twilight
Astronomical Twilight
Moon
Length of Visible Light
Length of Day
Tomorrow will be .
, % of the Moon is Illuminated

Today's Extremes

State Highs State Lows

Community

WunderPhotos

Upload Photos

1,819,126 photos uploaded!

WunderBlogs® & News

Nearby

Air Quality

  Air Quality AQ Index Pollutant
Not available.

Snow Depth

Station Depth Elevation

Earthquake Activity

City Distance Mag. Time & Date
Minimum magnitude displayed is 2.5.

Coastal Water Temperatures

Place Temperature

Stations

Nearby Weather Stations

Station Location Temp. Windchill Dew Point Humidity Wind Precip. Elev Updated Type